Terminal Aerodrome Forecast
Issued by NWS Blacksburg, VA

Home | Current Version | Previous Version | Text Only | Print | Product List | Glossary On
Versions: 1 2 3 4 5 6 7 8 9 10 11 12 13 14 15 16 17 18 19 20 21 22 23 24 25 26 27 28 29 30 31 32 33 34
000
FTUS41 KRNK 221741
TAFDAN
TAF
KDAN 221741Z 2218/2318 36005KT P6SM -SHRA FEW035 FEW120
     FM222000 28005KT P6SM VCTS SCT050CB BKN090
     FM230600 00000KT 5SM BR SCT005 BKN100
     FM231200 03003KT 3SM BR OVC025
     FM231600 03005KT P6SM BKN035=

USA.gov is the U.S. government's official web portal to all federal, state and local government web resources and services.